createdAt,value
2022-08-09T00:00:30.257Z,1.15
2022-08-09T00:02:58.266Z,1.58
2022-08-09T00:06:15.900Z,1.58
2022-08-09T00:08:32.486Z,1.17
2022-08-09T00:11:05.892Z,1.30
2022-08-09T00:13:51.228Z,1.23
2022-08-09T00:16:26.515Z,1.40
2022-08-09T00:19:09.338Z,1.33
2022-08-09T00:21:38.862Z,1.60
2022-08-09T00:24:24.249Z,1.40
2022-08-09T00:26:52.496Z,1.40
2022-08-09T00:30:09.989Z,1.42
2022-08-09T00:32:12.589Z,1.77
2022-08-09T00:34:51.939Z,1.67
2022-08-09T00:37:20.391Z,1.38
2022-08-09T00:40:09.338Z,1.10
2022-08-09T00:44:15.134Z,1.33
2022-08-09T00:45:29.637Z,1.80
2022-08-09T00:47:57.706Z,1.58
2022-08-09T00:50:27.756Z,1.70
2022-08-09T00:52:56.283Z,1.80
2022-08-09T00:56:03.766Z,1.67
2022-08-09T00:58:14.506Z,1.27
2022-08-09T01:00:45.168Z,1.73
2022-08-09T01:03:18.105Z,1.63
2022-08-09T01:08:31.171Z,2.13
2022-08-09T01:11:18.411Z,1.45
2022-08-09T01:13:59.418Z,2.00
2022-08-09T01:16:35.111Z,1.73
2022-08-09T01:19:17.210Z,1.52
2022-08-09T01:22:15.369Z,1.80
2022-08-09T01:29:01.527Z,1.80
2022-08-09T01:32:30.906Z,1.50
2022-08-09T01:35:43.173Z,1.33
2022-08-09T01:38:54.934Z,1.65
2022-08-09T01:42:10.930Z,1.75
2022-08-09T01:45:44.601Z,1.60
2022-08-09T01:49:10.662Z,1.20
2022-08-09T01:52:41.421Z,1.50
2022-08-09T01:55:52.390Z,1.73
2022-08-09T01:58:55.834Z,1.50
2022-08-09T02:02:22.981Z,1.63
2022-08-09T02:05:35.444Z,1.77
2022-08-09T02:08:58.819Z,1.70
2022-08-09T02:11:40.360Z,1.80
2022-08-09T02:14:45.263Z,1.50
2022-08-09T02:18:00.907Z,1.55
2022-08-09T02:21:03.451Z,2.15
2022-08-09T02:24:26.084Z,2.00
2022-08-09T02:27:27.493Z,1.83
2022-08-09T02:30:13.414Z,1.75
2022-08-09T02:33:14.182Z,1.75
2022-08-09T02:36:23.933Z,2.10
2022-08-09T02:39:14.407Z,2.15
2022-08-09T02:42:05.517Z,1.97
2022-08-09T02:44:51.392Z,2.05
2022-08-09T02:47:34.022Z,1.58
2022-08-09T02:50:59.522Z,2.08
2022-08-09T02:54:19.608Z,2.40
2022-08-09T02:57:23.477Z,2.53
2022-08-09T03:00:25.537Z,1.92
2022-08-09T03:03:37.349Z,2.30
2022-08-09T03:07:12.509Z,2.50
2022-08-09T03:10:30.737Z,2.53
2022-08-09T03:13:43.990Z,2.08
2022-08-09T03:16:45.339Z,1.90
2022-08-09T03:20:10.829Z,2.10
2022-08-09T03:23:24.664Z,1.92
2022-08-09T03:26:35.167Z,1.63
2022-08-09T03:29:57.068Z,2.22
2022-08-09T03:32:43.556Z,2.15
2022-08-09T03:36:12.401Z,2.50
2022-08-09T03:39:40.740Z,2.15
2022-08-09T03:42:47.722Z,2.45
2022-08-09T03:46:13.747Z,2.20
2022-08-09T03:49:26.016Z,2.05
2022-08-09T03:52:53.949Z,2.10
2022-08-09T03:56:08.264Z,2.35
2022-08-09T03:58:57.302Z,2.65
2022-08-09T04:02:00.161Z,2.40
2022-08-09T04:05:21.024Z,2.10
2022-08-09T04:08:28.913Z,2.53
2022-08-09T04:11:24.934Z,2.30
2022-08-09T04:14:53.157Z,2.33
2022-08-09T04:17:27.189Z,2.88
2022-08-09T04:20:29.983Z,2.08
2022-08-09T04:23:54.192Z,1.75
2022-08-09T04:27:08.922Z,2.30
2022-08-09T04:30:11.315Z,2.75
2022-08-09T04:32:48.189Z,2.05
2022-08-09T04:35:55.421Z,2.10
2022-08-09T04:39:14.246Z,2.28
2022-08-09T04:42:15.987Z,2.25
2022-08-09T04:44:56.426Z,2.03
2022-08-09T04:47:59.145Z,2.30
2022-08-09T04:50:31.902Z,2.55
2022-08-09T04:53:13.581Z,2.70
2022-08-09T04:55:59.116Z,2.45
2022-08-09T04:59:18.712Z,2.40
2022-08-09T05:02:16.234Z,2.80
2022-08-09T05:05:52.525Z,2.53
2022-08-09T05:08:51.720Z,2.58
2022-08-09T05:11:26.754Z,2.75
2022-08-09T05:14:26.877Z,2.63
2022-08-09T05:20:41.195Z,3.85
2022-08-09T05:23:57.752Z,3.10
2022-08-09T05:26:22.319Z,3.08
2022-08-09T05:29:39.609Z,2.67
2022-08-09T05:32:35.790Z,2.92
2022-08-09T05:35:26.998Z,2.60
2022-08-09T05:38:33.134Z,2.35
2022-08-09T05:41:36.058Z,3.05
2022-08-09T05:44:35.007Z,3.00
2022-08-09T05:47:30.264Z,2.40
2022-08-09T05:50:31.069Z,2.60
2022-08-09T05:53:32.096Z,2.28
2022-08-09T05:56:23.182Z,2.70
2022-08-09T05:59:04.154Z,2.00
2022-08-09T06:02:00.257Z,2.25
2022-08-09T06:04:50.970Z,2.53
2022-08-09T06:08:11.052Z,1.95
2022-08-09T06:10:45.629Z,2.70
2022-08-09T06:16:40.794Z,2.50
2022-08-09T06:19:24.275Z,2.83
2022-08-09T06:21:58.539Z,2.38
2022-08-09T06:24:29.795Z,1.95
2022-08-09T06:27:02.511Z,1.98
2022-08-09T06:29:48.388Z,2.75
2022-08-09T06:32:53.364Z,2.83
2022-08-09T06:35:57.185Z,1.90
2022-08-09T06:38:37.927Z,2.08
2022-08-09T06:41:19.141Z,2.75
2022-08-09T06:44:00.037Z,2.03
2022-08-09T06:47:00.139Z,2.53
2022-08-09T06:50:12.168Z,2.05
2022-08-09T06:52:29.238Z,1.70
2022-08-09T06:55:10.099Z,2.00
2022-08-09T06:58:28.497Z,2.08
2022-08-09T07:01:11.492Z,2.38
2022-08-09T07:03:52.207Z,2.33
2022-08-09T07:06:38.783Z,2.20
2022-08-09T07:09:55.070Z,2.10
2022-08-09T07:12:22.811Z,2.10
2022-08-09T07:16:39.460Z,1.55
2022-08-09T07:18:38.701Z,1.90
2022-08-09T07:21:12.496Z,1.77
2022-08-09T07:26:44.296Z,2.00
2022-08-09T07:29:37.896Z,2.28
2022-08-09T07:32:35.149Z,2.00
2022-08-09T07:35:14.810Z,1.98
2022-08-09T07:37:49.485Z,1.80
2022-08-09T07:40:27.835Z,1.80
2022-08-09T07:43:29.025Z,1.50
2022-08-09T07:46:06.934Z,2.45
2022-08-09T07:48:40.652Z,1.60
2022-08-09T07:52:04.353Z,2.15
2022-08-09T07:54:28.259Z,1.40
2022-08-09T07:57:11.620Z,2.03
2022-08-09T08:00:03.104Z,1.90
2022-08-09T08:02:37.343Z,1.52
2022-08-09T08:05:18.839Z,2.03
2022-08-09T08:09:00.513Z,1.60
2022-08-09T08:11:03.445Z,2.15
2022-08-09T08:13:57.788Z,1.60
2022-08-09T08:16:34.628Z,2.13
2022-08-09T08:19:08.410Z,1.60
2022-08-09T08:21:52.659Z,2.05
2022-08-09T08:24:40.725Z,2.20
2022-08-09T08:27:16.683Z,1.60
2022-08-09T08:29:50.394Z,2.00
2022-08-09T08:32:29.350Z,2.35
2022-08-09T08:35:04.074Z,2.40
2022-08-09T08:37:41.095Z,1.92
2022-08-09T08:40:13.278Z,2.15
2022-08-09T08:42:43.360Z,2.00
2022-08-09T08:45:18.072Z,1.48
2022-08-09T08:48:07.356Z,1.55
2022-08-09T08:50:39.109Z,1.88
2022-08-09T08:53:15.712Z,1.40
2022-08-09T08:55:46.190Z,2.13
2022-08-09T08:58:17.369Z,2.08
2022-08-09T09:00:45.966Z,2.10
2022-08-09T09:03:40.146Z,2.08
2022-08-09T09:09:02.222Z,2.83
2022-08-09T09:12:12.049Z,1.90
2022-08-09T09:15:06.834Z,1.90
2022-08-09T09:17:52.792Z,1.40
2022-08-09T09:20:34.525Z,1.63
2022-08-09T09:23:09.953Z,1.63
2022-08-09T09:26:12.238Z,1.75
2022-08-09T09:29:03.271Z,1.80
2022-08-09T09:32:03.467Z,2.08
2022-08-09T09:35:17.853Z,1.83
2022-08-09T09:38:01.564Z,2.13
2022-08-09T09:41:02.787Z,1.70
2022-08-09T09:44:10.608Z,1.80
2022-08-09T09:46:42.819Z,2.25
2022-08-09T09:49:13.928Z,1.50
2022-08-09T09:51:42.851Z,1.30
2022-08-09T09:54:21.617Z,1.40
2022-08-09T09:58:04.023Z,1.60
2022-08-09T09:59:55.644Z,2.28
2022-08-09T10:02:31.311Z,2.15
2022-08-09T10:05:14.832Z,1.42
2022-08-09T10:08:27.832Z,1.60
2022-08-09T10:11:59.074Z,1.63
2022-08-09T10:14:38.343Z,1.58
2022-08-09T10:17:50.217Z,1.45
2022-08-09T10:20:35.469Z,1.52
2022-08-09T10:23:36.814Z,2.72
2022-08-09T10:26:44.645Z,2.03
2022-08-09T10:30:56.774Z,2.17
2022-08-09T10:32:49.299Z,1.75
2022-08-09T10:35:22.991Z,1.70
2022-08-09T10:38:34.402Z,1.83
2022-08-09T10:42:00.478Z,1.20
2022-08-09T10:45:10.621Z,1.42
2022-08-09T10:48:26.101Z,1.88
2022-08-09T10:51:13.631Z,1.30
2022-08-09T10:54:04.755Z,1.60
2022-08-09T10:56:57.691Z,1.75
2022-08-09T11:00:01.618Z,1.45
2022-08-09T11:03:19.538Z,1.10
2022-08-09T11:06:51.875Z,1.20
2022-08-09T11:13:53.684Z,1.30
2022-08-09T11:17:11.654Z,2.33
2022-08-09T11:20:22.658Z,1.70
2022-08-09T11:23:39.550Z,2.15
2022-08-09T11:27:15.985Z,2.30
2022-08-09T11:30:35.738Z,1.08
2022-08-09T11:33:51.760Z,1.35
2022-08-09T11:37:18.648Z,1.60
2022-08-09T11:40:41.903Z,1.02
2022-08-09T11:44:10.212Z,0.98
2022-08-09T11:47:36.750Z,1.20
2022-08-09T11:51:19.509Z,1.17
2022-08-09T11:54:59.068Z,1.08
2022-08-09T11:58:32.322Z,1.05
2022-08-09T12:02:18.409Z,0.93
2022-08-09T12:04:47.667Z,1.00
2022-08-09T12:07:41.512Z,1.00
2022-08-09T12:10:38.030Z,1.10
2022-08-09T12:14:09.053Z,1.13
2022-08-09T12:16:05.477Z,1.42
2022-08-09T12:19:32.589Z,1.30
2022-08-09T12:22:41.378Z,1.00
2022-08-09T12:25:15.606Z,0.93
2022-08-09T12:29:12.313Z,1.20
2022-08-09T12:30:36.652Z,1.15
2022-08-09T12:33:18.539Z,0.80
2022-08-09T12:35:54.220Z,1.30
2022-08-09T12:38:37.726Z,0.88
2022-08-09T12:41:10.080Z,1.10
2022-08-09T12:44:04.837Z,1.00
2022-08-09T12:46:37.325Z,1.00
2022-08-09T12:49:09.724Z,1.13
2022-08-09T12:52:00.613Z,0.85
2022-08-09T12:54:31.380Z,1.35
2022-08-09T12:57:05.996Z,0.90
2022-08-09T13:00:02.180Z,1.00
2022-08-09T13:02:57.101Z,1.23
2022-08-09T13:05:50.842Z,1.15
2022-08-09T13:08:35.470Z,0.90
2022-08-09T13:11:23.348Z,0.82
2022-08-09T13:14:41.540Z,1.15
2022-08-09T13:16:59.400Z,0.90
2022-08-09T13:20:10.247Z,1.42
2022-08-09T13:22:37.765Z,1.20
2022-08-09T13:25:20.340Z,1.63
2022-08-09T13:27:55.961Z,1.58
2022-08-09T13:30:48.839Z,1.38
2022-08-09T13:33:53.176Z,1.42
2022-08-09T13:36:38.548Z,1.10
2022-08-09T13:41:20.954Z,0.90
2022-08-09T13:42:16.445Z,1.15
2022-08-09T13:44:49.224Z,0.88
2022-08-09T13:47:49.603Z,0.70
2022-08-09T13:51:00.428Z,1.35
2022-08-09T13:54:18.436Z,1.30
2022-08-09T13:57:06.405Z,1.10
2022-08-09T13:59:59.361Z,1.73
2022-08-09T14:03:16.916Z,1.38
2022-08-09T14:05:58.313Z,1.35
2022-08-09T14:08:44.405Z,1.40
2022-08-09T14:11:47.326Z,1.17
2022-08-09T14:18:16.785Z,0.88
2022-08-09T14:20:54.720Z,1.00
2022-08-09T14:24:05.535Z,1.00
2022-08-09T14:26:45.813Z,1.30
2022-08-09T14:30:18.428Z,1.25
2022-08-09T14:32:20.026Z,1.35
2022-08-09T14:34:57.805Z,1.10
2022-08-09T14:38:01.495Z,1.50
2022-08-09T14:40:38.750Z,1.33
2022-08-09T14:43:21.240Z,1.40
2022-08-09T14:46:46.137Z,1.40
2022-08-09T14:48:52.944Z,1.15
2022-08-09T14:51:25.038Z,1.13
2022-08-09T14:54:08.935Z,1.13
2022-08-09T14:56:53.648Z,1.15
2022-08-09T14:59:39.318Z,1.40
2022-08-09T15:02:16.712Z,1.33
2022-08-09T15:04:54.042Z,1.63
2022-08-09T15:07:25.666Z,1.10
2022-08-09T15:11:00.005Z,1.45
2022-08-09T15:13:55.824Z,1.52
2022-08-09T15:16:34.689Z,1.13
2022-08-09T15:20:02.334Z,1.50
2022-08-09T15:24:03.724Z,1.05
2022-08-09T15:26:59.509Z,1.30
2022-08-09T15:30:48.280Z,1.40
2022-08-09T15:34:33.408Z,0.88
2022-08-09T15:37:04.067Z,1.23
2022-08-09T15:43:50.833Z,0.95
2022-08-09T15:46:48.771Z,0.93
2022-08-09T15:50:04.478Z,1.00
2022-08-09T15:54:04.359Z,1.33
2022-08-09T15:56:51.116Z,1.33
2022-08-09T15:59:55.173Z,0.90
2022-08-09T16:02:54.054Z,1.30
2022-08-09T16:05:54.796Z,1.02
2022-08-09T16:09:05.803Z,1.00
2022-08-09T16:12:01.842Z,1.15
2022-08-09T16:14:37.164Z,1.10
2022-08-09T16:17:39.653Z,1.40
2022-08-09T16:20:30.252Z,1.30
2022-08-09T16:23:04.332Z,0.98
2022-08-09T16:25:40.649Z,1.40
2022-08-09T16:28:34.464Z,1.20
2022-08-09T16:32:19.422Z,1.08
2022-08-09T16:34:56.748Z,1.33
2022-08-09T16:37:53.142Z,1.00
2022-08-09T16:40:41.532Z,1.15
2022-08-09T16:43:12.048Z,1.15
2022-08-09T16:48:50.566Z,1.00
2022-08-09T16:51:40.639Z,1.08
2022-08-09T16:54:34.895Z,1.10
2022-08-09T16:57:06.388Z,1.60
2022-08-09T16:59:57.413Z,0.98
2022-08-09T17:02:46.476Z,1.40
2022-08-09T17:06:08.046Z,1.15
2022-08-09T17:09:03.178Z,1.38
2022-08-09T17:11:42.347Z,1.52
2022-08-09T17:14:25.326Z,1.00
2022-08-09T17:17:17.268Z,1.00
2022-08-09T17:20:32.453Z,1.50
2022-08-09T17:22:52.228Z,1.60
2022-08-09T17:25:41.836Z,1.20
2022-08-09T17:28:11.996Z,1.15
2022-08-09T17:30:47.618Z,2.95
2022-08-09T17:35:45.327Z,1.33
2022-08-09T17:38:38.613Z,1.38
2022-08-09T17:41:15.436Z,1.52
2022-08-09T17:43:50.867Z,1.45
2022-08-09T17:46:55.803Z,1.73
2022-08-09T17:49:27.210Z,2.42
2022-08-09T17:52:06.079Z,1.67
2022-08-09T17:54:52.742Z,1.73
2022-08-09T17:58:03.378Z,1.63
2022-08-09T18:00:46.665Z,1.80
2022-08-09T18:03:18.517Z,2.05
2022-08-09T18:06:14.773Z,1.73
2022-08-09T18:12:20.484Z,1.15
2022-08-09T18:15:20.617Z,1.42
2022-08-09T18:18:43.161Z,1.35
2022-08-09T18:21:54.351Z,1.25
2022-08-09T18:25:00.071Z,1.15
2022-08-09T18:30:36.114Z,1.25
2022-08-09T18:32:09.983Z,1.27
2022-08-09T18:35:17.419Z,1.35
2022-08-09T18:38:31.585Z,1.40
2022-08-09T18:43:53.683Z,1.20
2022-08-09T18:46:46.617Z,2.53
2022-08-09T18:50:18.105Z,1.13
2022-08-09T18:56:09.720Z,1.23
2022-08-09T18:59:00.993Z,1.30
2022-08-09T19:02:01.929Z,1.20
2022-08-09T19:05:14.267Z,1.55
2022-08-09T19:08:18.340Z,2.60
2022-08-09T19:11:00.781Z,1.80
2022-08-09T19:13:49.987Z,1.98
2022-08-09T19:16:36.323Z,1.50
2022-08-09T19:19:25.588Z,1.90
2022-08-09T19:22:06.854Z,1.50
2022-08-09T19:25:09.797Z,2.65
2022-08-09T19:27:45.424Z,1.73
2022-08-09T19:30:25.205Z,1.40
2022-08-09T19:33:09.328Z,1.42
2022-08-09T19:36:05.173Z,1.33
2022-08-09T19:39:20.559Z,1.10
2022-08-09T19:42:02.807Z,1.38
2022-08-09T19:44:43.936Z,1.20
2022-08-09T19:47:23.854Z,1.20
2022-08-09T19:50:50.122Z,1.42
2022-08-09T19:53:45.634Z,1.25
2022-08-09T19:57:09.329Z,1.33
2022-08-09T20:00:24.640Z,1.10
2022-08-09T20:04:18.746Z,1.20
2022-08-09T20:05:59.600Z,1.77
2022-08-09T20:08:57.053Z,1.00
2022-08-09T20:12:07.106Z,1.45
2022-08-09T20:16:33.877Z,1.30
2022-08-09T20:18:03.505Z,1.58
2022-08-09T20:21:17.734Z,1.00
2022-08-09T20:24:54.143Z,1.63
2022-08-09T20:28:04.690Z,1.08
2022-08-09T20:30:38.934Z,1.35
2022-08-09T20:33:27.663Z,1.20
2022-08-09T20:36:55.199Z,1.40
2022-08-09T20:40:15.556Z,1.88
2022-08-09T20:43:00.421Z,1.60
2022-08-09T20:46:01.407Z,1.38
2022-08-09T20:49:27.123Z,1.23
2022-08-09T20:52:00.568Z,1.67
2022-08-09T20:54:36.282Z,1.80
2022-08-09T20:57:32.046Z,1.02
2022-08-09T21:00:20.962Z,1.50
2022-08-09T21:02:59.645Z,1.60
2022-08-09T21:05:56.365Z,1.60
2022-08-09T21:08:36.646Z,1.50
2022-08-09T21:14:03.785Z,1.17
2022-08-09T21:17:02.462Z,1.02
2022-08-09T21:20:16.104Z,1.48
2022-08-09T21:22:43.173Z,1.30
2022-08-09T21:25:44.151Z,1.30
2022-08-09T21:28:36.306Z,1.40
2022-08-09T21:31:19.965Z,1.23
2022-08-09T21:36:36.741Z,1.10
2022-08-09T21:39:10.101Z,1.35
2022-08-09T21:42:00.306Z,1.52
2022-08-09T21:44:46.542Z,1.15
2022-08-09T21:47:30.272Z,1.50
2022-08-09T21:50:01.659Z,1.27
2022-08-09T21:52:36.893Z,1.20
2022-08-09T21:55:10.874Z,1.15
2022-08-09T21:58:02.952Z,1.15
2022-08-09T22:00:52.317Z,1.27
2022-08-09T22:03:36.778Z,1.25
2022-08-09T22:06:59.022Z,2.00
2022-08-09T22:10:15.575Z,1.48
2022-08-09T22:12:54.007Z,1.63
2022-08-09T22:16:04.063Z,1.50
2022-08-09T22:18:54.185Z,1.73
2022-08-09T22:22:02.773Z,1.27
2022-08-09T22:26:04.367Z,2.05
2022-08-09T22:27:45.145Z,1.20
2022-08-09T22:30:26.069Z,1.60
2022-08-09T22:33:09.596Z,1.23
2022-08-09T22:36:02.717Z,1.35
2022-08-09T22:38:42.336Z,1.33
2022-08-09T22:41:14.772Z,1.75
2022-08-09T22:44:03.093Z,1.80
2022-08-09T22:48:13.372Z,1.90
2022-08-09T22:49:41.638Z,1.63
2022-08-09T22:52:11.282Z,1.48
2022-08-09T22:54:48.151Z,1.88
2022-08-09T22:57:35.727Z,1.40
2022-08-09T23:00:08.175Z,1.58
2022-08-09T23:02:51.867Z,1.58
2022-08-09T23:05:45.899Z,1.50
2022-08-09T23:11:06.371Z,1.40
2022-08-09T23:13:42.874Z,1.20
2022-08-09T23:16:29.814Z,1.77
2022-08-09T23:19:09.674Z,1.80
2022-08-09T23:21:44.824Z,1.65
2022-08-09T23:24:19.828Z,1.40
2022-08-09T23:27:08.309Z,1.63
2022-08-09T23:29:47.489Z,1.85
2022-08-09T23:32:23.421Z,1.50
2022-08-09T23:34:56.037Z,1.48
2022-08-09T23:37:28.956Z,1.87
2022-08-09T23:40:07.715Z,2.75
2022-08-09T23:42:40.676Z,2.15
2022-08-09T23:45:37.761Z,1.88
2022-08-09T23:48:08.705Z,1.50
2022-08-09T23:50:40.855Z,1.67
2022-08-09T23:53:20.455Z,1.98
2022-08-09T23:55:57.323Z,2.10
2022-08-09T23:58:54.562Z,1.98
